CheckWX is a tool to help pilots better visualize weather data.  It is not intended as a substitute for an official pre-flight weather briefing.

08:47:42 UTC

KEKQ METAR
Wayne County Airport
Monticello, Kentucky, USA
Current

52 mins ago

KEKQ 260756Z AUTO 29007KT 10SM OVC032 02/M02 A3011 RMK AO2 SLP198 T00171022 PNO $
Observed
Jan-26 @ 07:56 UTC
Wind
  • 290° at 7 KTS
Visibility
10 SM
Flight Rules
VFR
Cloud Levels
  • Overcast at 3,200' AGL
Temperature
C / 36°F
Dewpoint
-2°C / 28°F
Humidity
75%
Altimeter
30.11" Hg
Pressure
1019.62 hPa
Previous

2 hours ago

KEKQ 260656Z AUTO 27014KT 10SM OVC030 02/M03 A3011 RMK AO2 SLP198 T00171028 PNO $
Observed
Jan-26 @ 06:56 UTC
Wind
  • 270° at 14 KTS
Visibility
10 SM
Flight Rules
MVFR
Cloud Levels
  • Overcast at 3,000' AGL
Temperature
C / 36°F
Dewpoint
-3°C / 27°F
Humidity
70%
Altimeter
30.11" Hg
Pressure
1019.62 hPa
Previous

2 hours ago

KEKQ 260634Z AUTO 27016G20KT 10SM OVC030 02/M02 A3011 RMK AO2 PNO $
Observed
Jan-26 @ 06:34 UTC
Wind
  • 270° at 16 KTS
  • Gusting to 20 KTS
Visibility
10 SM
Flight Rules
MVFR
Cloud Levels
  • Overcast at 3,000' AGL
Temperature
C / 36°F
Dewpoint
-2°C / 28°F
Humidity
75%
Altimeter
30.11" Hg
Pressure
1019.62 hPa